createdAt,value
2023-01-07T00:01:09.217Z,74.42
2023-01-07T00:03:37.058Z,74.46
2023-01-07T00:06:15.108Z,74.51
2023-01-07T00:08:44.024Z,74.45
2023-01-07T00:11:16.417Z,74.34
2023-01-07T00:13:44.780Z,74.29
2023-01-07T00:16:14.160Z,74.31
2023-01-07T00:18:41.588Z,74.36
2023-01-07T00:21:11.556Z,74.39
2023-01-07T00:23:40.418Z,74.40
2023-01-07T00:26:19.151Z,74.41
2023-01-07T00:28:48.638Z,74.45
2023-01-07T00:31:36.690Z,74.36
2023-01-07T00:34:04.548Z,74.37
2023-01-07T00:36:33.770Z,74.41
2023-01-07T00:39:04.991Z,74.43
2023-01-07T00:41:32.775Z,74.45
2023-01-07T00:43:59.513Z,74.48
2023-01-07T00:46:26.995Z,74.41
2023-01-07T00:48:54.097Z,74.38
2023-01-07T00:51:20.819Z,74.38
2023-01-07T00:53:48.098Z,74.36
2023-01-07T00:56:17.694Z,74.38
2023-01-07T00:58:44.722Z,74.40
2023-01-07T01:01:12.437Z,74.37
2023-01-07T01:03:40.236Z,74.36
2023-01-07T01:06:10.937Z,74.39
2023-01-07T01:08:38.217Z,74.36
2023-01-07T01:11:09.838Z,74.38
2023-01-07T01:13:38.704Z,74.35
2023-01-07T01:16:14.720Z,74.39
2023-01-07T01:18:42.173Z,74.39
2023-01-07T01:21:12.225Z,74.42
2023-01-07T01:23:39.723Z,74.41
2023-01-07T01:26:11.786Z,74.33
2023-01-07T01:28:39.565Z,74.27
2023-01-07T01:31:08.397Z,74.26
2023-01-07T01:33:36.184Z,74.28
2023-01-07T01:36:05.401Z,74.35
2023-01-07T01:38:32.137Z,74.37
2023-01-07T01:40:59.705Z,74.30
2023-01-07T01:43:35.167Z,74.27
2023-01-07T01:46:05.933Z,74.25
2023-01-07T01:48:35.666Z,74.34
2023-01-07T01:51:03.891Z,74.37
2023-01-07T01:53:33.969Z,74.36
2023-01-07T01:56:11.823Z,74.32
2023-01-07T01:59:01.210Z,74.36
2023-01-07T02:01:33.556Z,74.34
2023-01-07T02:04:11.874Z,74.31
2023-01-07T02:06:46.719Z,74.30
2023-01-07T02:09:14.135Z,74.29
2023-01-07T02:12:29.873Z,74.29
2023-01-07T02:15:05.982Z,74.38
2023-01-07T02:17:56.447Z,74.31
2023-01-07T02:20:46.662Z,74.27
2023-01-07T02:23:39.872Z,74.30
2023-01-07T02:26:37.767Z,74.33
2023-01-07T02:29:07.700Z,74.36
2023-01-07T02:32:12.054Z,74.37
2023-01-07T02:34:48.399Z,74.39
2023-01-07T02:37:39.223Z,74.34
2023-01-07T02:40:09.066Z,74.38
2023-01-07T02:43:25.179Z,74.43
2023-01-07T02:46:03.302Z,74.43
2023-01-07T02:48:31.779Z,74.38
2023-01-07T02:50:59.660Z,74.33
2023-01-07T02:53:26.361Z,74.29
2023-01-07T02:56:14.445Z,74.27
2023-01-07T02:59:15.288Z,74.24
2023-01-07T03:02:01.599Z,74.28
2023-01-07T03:04:56.479Z,74.15
2023-01-07T03:07:53.897Z,74.12
2023-01-07T03:10:54.608Z,74.10
2023-01-07T03:13:26.883Z,74.09
2023-01-07T03:16:03.038Z,74.07
2023-01-07T03:18:32.946Z,74.02
2023-01-07T03:21:05.914Z,73.99
2023-01-07T03:23:35.673Z,74.00
2023-01-07T03:26:06.606Z,74.04
2023-01-07T03:28:40.527Z,74.03
2023-01-07T03:31:12.207Z,74.00
2023-01-07T03:33:52.205Z,73.97
2023-01-07T03:36:23.423Z,73.95
2023-01-07T03:38:53.017Z,73.98
2023-01-07T03:41:39.557Z,73.98
2023-01-07T03:44:06.353Z,74.01
2023-01-07T03:46:34.277Z,74.00
2023-01-07T03:49:00.977Z,73.92
2023-01-07T03:51:28.001Z,73.88
2023-01-07T03:53:56.034Z,73.78
2023-01-07T03:56:23.041Z,73.76
2023-01-07T03:58:49.716Z,73.82
2023-01-07T04:01:16.688Z,73.78
2023-01-07T04:03:43.716Z,73.77
2023-01-07T04:06:10.634Z,73.79
2023-01-07T04:08:37.334Z,73.79
2023-01-07T04:11:04.995Z,73.79
2023-01-07T04:13:32.231Z,73.79
2023-01-07T04:15:58.851Z,73.74
2023-01-07T04:18:25.831Z,73.75
2023-01-07T04:20:52.655Z,73.78
2023-01-07T04:23:19.391Z,73.83
2023-01-07T04:25:48.489Z,73.85
2023-01-07T04:28:16.691Z,73.90
2023-01-07T04:30:43.689Z,73.95
2023-01-07T04:33:10.659Z,73.97
2023-01-07T04:35:39.994Z,74.03
2023-01-07T04:38:07.194Z,74.04
2023-01-07T04:40:34.575Z,74.03
2023-01-07T04:43:01.533Z,74.06
2023-01-07T04:45:28.441Z,74.07
2023-01-07T04:47:57.248Z,74.05
2023-01-07T04:50:24.793Z,74.02
2023-01-07T04:52:52.244Z,73.97
2023-01-07T04:55:19.392Z,73.95
2023-01-07T04:57:46.119Z,73.95
2023-01-07T05:00:14.092Z,73.95
2023-01-07T05:02:41.876Z,73.86
2023-01-07T05:05:09.780Z,73.86
2023-01-07T05:07:37.423Z,73.81
2023-01-07T05:10:05.486Z,73.83
2023-01-07T05:12:36.969Z,73.81
2023-01-07T05:15:06.247Z,73.80
2023-01-07T05:17:33.705Z,73.81
2023-01-07T05:20:01.592Z,73.78
2023-01-07T05:22:29.217Z,73.75
2023-01-07T05:24:55.935Z,73.78
2023-01-07T05:27:23.548Z,73.86
2023-01-07T05:29:50.694Z,73.89
2023-01-07T05:32:17.517Z,73.88
2023-01-07T05:34:44.321Z,73.92
2023-01-07T05:37:11.367Z,73.98
2023-01-07T05:39:38.835Z,74.05
2023-01-07T05:42:05.870Z,74.07
2023-01-07T05:44:34.423Z,74.08
2023-01-07T05:47:01.134Z,74.14
2023-01-07T05:49:27.774Z,74.16
2023-01-07T05:51:54.628Z,74.19
2023-01-07T05:54:21.225Z,74.22
2023-01-07T05:56:47.827Z,74.25
2023-01-07T05:59:14.748Z,74.25
2023-01-07T06:01:41.363Z,74.27
2023-01-07T06:04:08.416Z,74.35
2023-01-07T06:06:35.040Z,74.40
2023-01-07T06:09:01.688Z,74.47
2023-01-07T06:11:28.624Z,74.48
2023-01-07T06:13:55.301Z,74.55
2023-01-07T06:16:21.972Z,74.60
2023-01-07T06:18:48.854Z,74.61
2023-01-07T06:21:16.793Z,74.62
2023-01-07T06:23:43.618Z,74.60
2023-01-07T06:26:10.529Z,74.60
2023-01-07T06:28:37.182Z,74.64
2023-01-07T06:31:03.942Z,74.70
2023-01-07T06:33:33.323Z,74.66
2023-01-07T06:36:00.236Z,74.71
2023-01-07T06:38:26.890Z,74.71
2023-01-07T06:40:53.743Z,74.70
2023-01-07T06:43:20.440Z,74.70
2023-01-07T06:45:47.249Z,74.71
2023-01-07T06:48:14.206Z,74.69
2023-01-07T06:50:40.924Z,74.73
2023-01-07T06:53:07.597Z,74.68
2023-01-07T06:55:34.494Z,74.68
2023-01-07T06:58:01.243Z,74.71
2023-01-07T07:00:27.874Z,74.76
2023-01-07T07:02:54.844Z,74.74
2023-01-07T07:05:21.543Z,74.64
2023-01-07T07:07:48.785Z,74.63
2023-01-07T07:10:15.859Z,74.62
2023-01-07T07:12:42.557Z,74.59
2023-01-07T07:15:09.629Z,74.51
2023-01-07T07:17:36.509Z,74.49
2023-01-07T07:20:03.778Z,74.43
2023-01-07T07:22:30.526Z,74.39
2023-01-07T07:24:57.536Z,74.37
2023-01-07T07:27:24.269Z,74.42
2023-01-07T07:29:50.932Z,74.46
2023-01-07T07:32:17.909Z,74.48
2023-01-07T07:34:44.548Z,74.46
2023-01-07T07:37:11.280Z,74.43
2023-01-07T07:39:38.293Z,74.37
2023-01-07T07:42:05.776Z,74.34
2023-01-07T07:44:32.434Z,74.35
2023-01-07T07:46:59.368Z,74.36
2023-01-07T07:49:26.044Z,74.29
2023-01-07T07:51:52.759Z,74.28
2023-01-07T07:54:20.440Z,74.25
2023-01-07T07:56:48.040Z,74.22
2023-01-07T07:59:14.788Z,74.23
2023-01-07T08:01:41.840Z,74.22
2023-01-07T08:04:08.812Z,74.22
2023-01-07T08:06:35.724Z,74.28
2023-01-07T08:09:02.404Z,74.28
2023-01-07T08:11:29.408Z,74.26
2023-01-07T08:13:56.170Z,74.16
2023-01-07T08:16:22.827Z,74.11
2023-01-07T08:18:49.823Z,74.04
2023-01-07T08:21:16.617Z,73.98
2023-01-07T08:23:43.237Z,73.90
2023-01-07T08:26:10.213Z,73.81
2023-01-07T08:28:37.827Z,73.72
2023-01-07T08:31:06.346Z,73.68
2023-01-07T08:33:37.593Z,73.74
2023-01-07T08:36:09.382Z,73.80
2023-01-07T08:38:39.027Z,73.83
2023-01-07T08:41:05.761Z,73.83
2023-01-07T08:43:33.401Z,73.80
2023-01-07T08:46:00.227Z,73.75
2023-01-07T08:48:26.996Z,73.74
2023-01-07T08:50:54.484Z,73.70
2023-01-07T08:53:23.045Z,73.66
2023-01-07T08:55:50.125Z,73.59
2023-01-07T08:58:16.752Z,73.57
2023-01-07T09:00:43.968Z,73.56
2023-01-07T09:03:10.648Z,73.61
2023-01-07T09:05:37.327Z,73.64
2023-01-07T09:08:04.463Z,73.66
2023-01-07T09:10:31.193Z,73.67
2023-01-07T09:12:57.983Z,73.71
2023-01-07T09:15:25.248Z,73.69
2023-01-07T09:17:52.028Z,73.63
2023-01-07T09:20:19.233Z,73.51
2023-01-07T09:22:46.545Z,73.46
2023-01-07T09:25:13.512Z,73.39
2023-01-07T09:27:41.008Z,73.35
2023-01-07T09:30:09.553Z,73.29
2023-01-07T09:32:36.321Z,73.25
2023-01-07T09:35:03.671Z,73.25
2023-01-07T09:37:30.725Z,73.19
2023-01-07T09:39:57.405Z,73.08
2023-01-07T09:42:34.068Z,72.94
2023-01-07T09:45:22.937Z,72.85
2023-01-07T09:47:54.223Z,72.79
2023-01-07T09:50:32.344Z,72.79
2023-01-07T09:53:05.370Z,72.81
2023-01-07T09:55:36.030Z,72.74
2023-01-07T09:58:03.108Z,72.70
2023-01-07T10:00:33.161Z,72.51
2023-01-07T10:03:33.007Z,72.43
2023-01-07T10:06:26.180Z,72.48
2023-01-07T10:09:07.742Z,72.38
2023-01-07T10:12:12.573Z,72.38
2023-01-07T10:15:11.873Z,72.47
2023-01-07T10:17:53.465Z,72.39
2023-01-07T10:20:44.164Z,72.37
2023-01-07T10:23:14.623Z,72.37
2023-01-07T10:25:48.703Z,72.12
2023-01-07T10:28:25.437Z,72.08
2023-01-07T10:30:52.311Z,72.07
2023-01-07T10:33:29.620Z,72.01
2023-01-07T10:36:31.708Z,72.04
2023-01-07T10:39:19.839Z,72.08
2023-01-07T10:42:28.111Z,72.05
2023-01-07T10:45:16.473Z,72.01
2023-01-07T10:48:07.555Z,71.87
2023-01-07T10:50:56.343Z,71.86
2023-01-07T10:54:03.491Z,71.89
2023-01-07T10:56:52.410Z,71.79
2023-01-07T10:59:22.270Z,71.82
2023-01-07T11:01:53.455Z,71.64
2023-01-07T11:04:21.146Z,71.64
2023-01-07T11:06:49.321Z,71.59
2023-01-07T11:09:23.717Z,71.52
2023-01-07T11:11:51.697Z,71.45
2023-01-07T11:14:27.459Z,71.45
2023-01-07T11:17:00.668Z,71.47
2023-01-07T11:19:52.435Z,71.42
2023-01-07T11:22:25.617Z,71.54
2023-01-07T11:24:53.711Z,71.48
2023-01-07T11:27:23.428Z,71.39
2023-01-07T11:30:03.752Z,71.21
2023-01-07T11:32:33.125Z,71.17
2023-01-07T11:35:02.484Z,71.11
2023-01-07T11:37:33.978Z,71.12
2023-01-07T11:40:04.640Z,71.14
2023-01-07T11:42:40.404Z,71.15
2023-01-07T11:45:28.507Z,71.10
2023-01-07T11:48:10.455Z,71.11
2023-01-07T11:50:38.895Z,71.05
2023-01-07T11:53:27.379Z,71.25
2023-01-07T11:55:57.505Z,70.97
2023-01-07T11:58:28.649Z,70.93
2023-01-07T12:01:09.219Z,70.97
2023-01-07T12:03:39.621Z,71.00
2023-01-07T12:06:27.833Z,70.92
2023-01-07T12:09:00.983Z,70.94
2023-01-07T12:11:34.176Z,70.82
2023-01-07T12:14:24.115Z,70.82
2023-01-07T12:16:51.820Z,70.86
2023-01-07T12:19:39.102Z,70.74
2023-01-07T12:22:08.634Z,70.79
2023-01-07T12:24:38.573Z,70.62
2023-01-07T12:27:15.782Z,70.59
2023-01-07T12:30:05.273Z,70.61
2023-01-07T12:32:47.227Z,70.71
2023-01-07T12:35:30.177Z,70.72
2023-01-07T12:38:05.933Z,70.73
2023-01-07T12:40:45.277Z,70.70
2023-01-07T12:43:24.592Z,70.62
2023-01-07T12:45:56.217Z,70.58
2023-01-07T12:48:45.752Z,70.52
2023-01-07T12:51:22.774Z,70.61
2023-01-07T12:54:18.196Z,70.59
2023-01-07T12:56:58.561Z,70.62
2023-01-07T12:59:46.751Z,70.51
2023-01-07T13:02:32.965Z,70.48
2023-01-07T13:05:12.779Z,70.45
2023-01-07T13:07:42.732Z,70.41
2023-01-07T13:10:19.195Z,70.35
2023-01-07T13:12:49.170Z,70.37
2023-01-07T13:15:23.832Z,70.36
2023-01-07T13:17:54.012Z,70.38
2023-01-07T13:20:56.394Z,70.39
2023-01-07T13:23:46.344Z,70.37
2023-01-07T13:26:52.337Z,70.50
2023-01-07T13:29:32.893Z,70.43
2023-01-07T13:32:23.099Z,70.27
2023-01-07T13:35:24.856Z,70.24
2023-01-07T13:38:24.416Z,70.29
2023-01-07T13:41:04.356Z,70.32
2023-01-07T13:44:07.310Z,70.24
2023-01-07T13:46:38.685Z,70.28
2023-01-07T13:49:06.087Z,70.20
2023-01-07T13:51:36.776Z,70.23
2023-01-07T13:54:03.958Z,70.24
2023-01-07T13:56:36.400Z,70.28
2023-01-07T13:59:03.939Z,70.33
2023-01-07T14:01:35.696Z,70.37
2023-01-07T14:04:03.320Z,70.41
2023-01-07T14:06:29.895Z,70.53
2023-01-07T14:09:16.285Z,70.37
2023-01-07T14:12:25.836Z,70.38
2023-01-07T14:14:58.302Z,70.43
2023-01-07T14:17:49.803Z,70.39
2023-01-07T14:20:41.290Z,70.43
2023-01-07T14:23:31.634Z,70.41
2023-01-07T14:26:29.129Z,70.47
2023-01-07T14:29:24.815Z,70.51
2023-01-07T14:31:52.977Z,70.51
2023-01-07T14:34:25.619Z,70.50
2023-01-07T14:37:01.635Z,70.51
2023-01-07T14:39:43.060Z,70.56
2023-01-07T14:42:18.865Z,70.58
2023-01-07T14:44:51.045Z,70.58
2023-01-07T14:47:45.835Z,70.61
2023-01-07T14:50:38.249Z,70.65
2023-01-07T14:53:43.117Z,70.65
2023-01-07T14:56:54.646Z,70.63
2023-01-07T14:59:21.221Z,70.64
2023-01-07T15:02:15.730Z,70.61
2023-01-07T15:05:01.404Z,70.64
2023-01-07T15:07:34.077Z,70.66
2023-01-07T15:10:30.639Z,70.61
2023-01-07T15:13:18.681Z,70.58
2023-01-07T15:16:01.753Z,70.58
2023-01-07T15:18:42.768Z,70.56
2023-01-07T15:21:59.205Z,70.53
2023-01-07T15:24:44.699Z,70.56
2023-01-07T15:27:17.257Z,70.52
2023-01-07T15:30:03.887Z,70.46
2023-01-07T15:32:59.541Z,70.45
2023-01-07T15:35:33.619Z,70.47
2023-01-07T15:38:02.833Z,70.40
2023-01-07T15:40:29.914Z,70.40
2023-01-07T15:42:58.960Z,70.39
2023-01-07T15:45:27.779Z,70.39
2023-01-07T15:48:10.661Z,70.42
2023-01-07T15:50:37.779Z,70.42
2023-01-07T15:53:10.971Z,70.43
2023-01-07T15:55:45.057Z,70.38
2023-01-07T15:58:18.664Z,70.34
2023-01-07T16:00:50.964Z,70.32
2023-01-07T16:03:19.892Z,70.30
2023-01-07T16:05:47.372Z,70.31
2023-01-07T16:08:27.161Z,70.29
2023-01-07T16:11:05.026Z,70.27
2023-01-07T16:13:33.020Z,70.28
2023-01-07T16:16:03.329Z,70.25
2023-01-07T16:18:34.577Z,70.20
2023-01-07T16:21:08.486Z,70.21
2023-01-07T16:23:37.848Z,70.24
2023-01-07T16:26:06.284Z,70.24
2023-01-07T16:28:39.849Z,70.23
2023-01-07T16:31:10.489Z,70.27
2023-01-07T16:33:38.473Z,70.29
2023-01-07T16:36:29.187Z,70.31
2023-01-07T16:39:00.412Z,70.39
2023-01-07T16:41:29.824Z,70.37
2023-01-07T16:43:58.309Z,70.38
2023-01-07T16:46:30.070Z,70.41
2023-01-07T16:49:09.179Z,70.45
2023-01-07T16:51:54.449Z,70.51
2023-01-07T16:54:25.423Z,70.47
2023-01-07T16:56:55.040Z,70.46
2023-01-07T16:59:26.345Z,70.50
2023-01-07T17:01:53.798Z,70.54
2023-01-07T17:04:27.875Z,70.57
2023-01-07T17:06:54.995Z,70.59
2023-01-07T17:09:26.754Z,70.62
2023-01-07T17:11:54.700Z,70.68
2023-01-07T17:14:34.027Z,70.75
2023-01-07T17:17:02.599Z,70.81
2023-01-07T17:19:41.584Z,70.87
2023-01-07T17:22:28.039Z,70.91
2023-01-07T17:25:02.758Z,70.95
2023-01-07T17:27:30.983Z,70.99
2023-01-07T17:30:01.988Z,71.06
2023-01-07T17:32:29.704Z,71.16
2023-01-07T17:35:02.788Z,71.27
2023-01-07T17:37:29.965Z,71.39
2023-01-07T17:39:56.589Z,71.49
2023-01-07T17:42:46.946Z,71.59
2023-01-07T17:45:16.582Z,71.71
2023-01-07T17:47:44.048Z,71.81
2023-01-07T17:50:15.093Z,71.90
2023-01-07T17:52:48.224Z,72.00
2023-01-07T17:55:17.965Z,72.09
2023-01-07T17:57:45.086Z,72.18
2023-01-07T18:00:14.905Z,72.28
2023-01-07T18:02:42.425Z,72.39
2023-01-07T18:05:14.873Z,72.47
2023-01-07T18:07:41.906Z,72.57
2023-01-07T18:10:12.303Z,72.64
2023-01-07T18:12:40.307Z,72.74
2023-01-07T18:15:17.837Z,72.81
2023-01-07T18:17:45.710Z,72.89
2023-01-07T18:20:14.326Z,73.00
2023-01-07T18:22:42.508Z,73.08
2023-01-07T18:25:15.758Z,73.17
2023-01-07T18:27:42.840Z,73.27
2023-01-07T18:30:13.561Z,73.36
2023-01-07T18:32:40.401Z,73.45
2023-01-07T18:35:08.277Z,73.51
2023-01-07T18:37:34.999Z,73.58
2023-01-07T18:40:03.527Z,73.66
2023-01-07T18:42:31.704Z,73.71
2023-01-07T18:44:58.446Z,73.77
2023-01-07T18:47:25.304Z,73.81
2023-01-07T18:49:52.300Z,73.87
2023-01-07T18:52:19.084Z,73.93
2023-01-07T18:54:46.003Z,74.00
2023-01-07T18:57:14.469Z,74.04
2023-01-07T18:59:41.572Z,74.09
2023-01-07T19:02:15.154Z,74.16
2023-01-07T19:04:42.112Z,74.22
2023-01-07T19:07:09.681Z,74.27
2023-01-07T19:09:36.427Z,74.32
2023-01-07T19:12:04.426Z,74.37
2023-01-07T19:14:31.161Z,74.40
2023-01-07T19:16:57.903Z,74.44
2023-01-07T19:19:24.899Z,74.46
2023-01-07T19:21:51.558Z,74.48
2023-01-07T19:24:18.296Z,74.48
2023-01-07T19:26:46.883Z,74.47
2023-01-07T19:29:14.200Z,74.48
2023-01-07T19:31:43.127Z,74.48
2023-01-07T19:34:10.161Z,74.49
2023-01-07T19:36:36.813Z,74.48
2023-01-07T19:39:04.035Z,74.49
2023-01-07T19:41:32.934Z,74.50
2023-01-07T19:44:00.437Z,74.51
2023-01-07T19:46:27.961Z,74.54
2023-01-07T19:48:54.968Z,74.52
2023-01-07T19:51:21.602Z,74.49
2023-01-07T19:53:48.282Z,74.50
2023-01-07T19:56:15.495Z,74.51
2023-01-07T19:58:42.196Z,74.52
2023-01-07T20:01:12.417Z,74.52
2023-01-07T20:03:39.764Z,74.54
2023-01-07T20:06:12.497Z,74.56
2023-01-07T20:08:40.260Z,74.55
2023-01-07T20:11:07.372Z,74.56
2023-01-07T20:13:35.230Z,74.57
2023-01-07T20:16:06.832Z,74.58
2023-01-07T20:18:38.430Z,74.61
2023-01-07T20:21:06.156Z,74.62
2023-01-07T20:23:36.011Z,74.62
2023-01-07T20:26:06.077Z,74.62
2023-01-07T20:28:33.989Z,74.61
2023-01-07T20:31:04.084Z,74.61
2023-01-07T20:33:30.804Z,74.62
2023-01-07T20:36:09.699Z,74.58
2023-01-07T20:38:37.069Z,74.53
2023-01-07T20:41:05.788Z,74.52
2023-01-07T20:43:33.218Z,74.51
2023-01-07T20:46:01.900Z,74.49
2023-01-07T20:48:30.007Z,74.49
2023-01-07T20:50:57.151Z,74.47
2023-01-07T20:53:24.502Z,74.42
2023-01-07T20:55:59.352Z,74.36
2023-01-07T20:58:26.844Z,74.34
2023-01-07T21:00:54.006Z,74.36
2023-01-07T21:03:20.822Z,74.34
2023-01-07T21:05:48.007Z,74.32
2023-01-07T21:08:15.174Z,74.29
2023-01-07T21:10:43.164Z,74.26
2023-01-07T21:13:09.807Z,74.25
2023-01-07T21:15:38.412Z,74.27
2023-01-07T21:18:05.156Z,74.29
2023-01-07T21:20:31.971Z,74.31
2023-01-07T21:22:59.077Z,74.31
2023-01-07T21:25:25.911Z,74.32
2023-01-07T21:27:52.573Z,74.31
2023-01-07T21:30:19.704Z,74.30
2023-01-07T21:32:47.260Z,74.28
2023-01-07T21:35:14.707Z,74.27
2023-01-07T21:37:41.685Z,74.25
2023-01-07T21:40:08.827Z,74.28
2023-01-07T21:42:36.413Z,74.33
2023-01-07T21:45:04.363Z,74.35
2023-01-07T21:47:31.033Z,74.34
2023-01-07T21:49:57.622Z,74.35
2023-01-07T21:52:24.687Z,74.37
2023-01-07T21:54:56.083Z,74.35
2023-01-07T21:57:23.779Z,74.33
2023-01-07T21:59:50.771Z,74.30
2023-01-07T22:02:18.766Z,74.25
2023-01-07T22:04:47.571Z,74.18
2023-01-07T22:07:16.607Z,74.18
2023-01-07T22:09:44.057Z,74.22
2023-01-07T22:12:11.868Z,74.24
2023-01-07T22:14:39.047Z,74.26
2023-01-07T22:17:06.708Z,74.28
2023-01-07T22:19:33.904Z,74.31
2023-01-07T22:22:01.488Z,74.36
2023-01-07T22:24:29.521Z,74.37
2023-01-07T22:26:57.368Z,74.40
2023-01-07T22:29:24.363Z,74.47
2023-01-07T22:31:52.867Z,74.50
2023-01-07T22:34:20.309Z,74.59
2023-01-07T22:36:56.130Z,74.61
2023-01-07T22:39:37.745Z,74.63
2023-01-07T22:42:17.450Z,74.62
2023-01-07T22:44:48.716Z,74.61
2023-01-07T22:47:19.529Z,74.60
2023-01-07T22:49:49.251Z,74.60
2023-01-07T22:52:16.240Z,74.61
2023-01-07T22:54:42.969Z,74.64
2023-01-07T22:57:12.001Z,74.67
2023-01-07T22:59:38.774Z,74.72
2023-01-07T23:02:06.043Z,74.73
2023-01-07T23:04:33.139Z,74.73
2023-01-07T23:06:59.963Z,74.73
2023-01-07T23:09:26.653Z,74.72
2023-01-07T23:11:59.235Z,74.73
2023-01-07T23:14:27.120Z,74.72
2023-01-07T23:16:55.135Z,74.74
2023-01-07T23:19:22.428Z,74.76
2023-01-07T23:21:53.241Z,74.81
2023-01-07T23:24:20.568Z,74.82
2023-01-07T23:26:49.033Z,74.85
2023-01-07T23:29:15.810Z,74.87
2023-01-07T23:31:42.808Z,74.83
2023-01-07T23:34:09.553Z,74.81
2023-01-07T23:36:37.254Z,74.81
2023-01-07T23:39:05.170Z,74.83
2023-01-07T23:41:32.620Z,74.86
2023-01-07T23:43:59.290Z,74.89
2023-01-07T23:46:26.255Z,74.92
2023-01-07T23:48:52.856Z,74.94
2023-01-07T23:51:21.241Z,74.95
2023-01-07T23:53:48.403Z,74.98
2023-01-07T23:56:18.102Z,74.99
2023-01-07T23:58:44.791Z,75.02
